Time;durP1;ratioP1;P1;durP2;ratioP2;P2;SDS_P1;SDS_P2;PMS_P1;PMS_P2;Temp;Humidity;BMP_temperature;BMP_pressure;BME280_temperature;BME280_humidity;BME280_pressure;Samples;Min_cycle;Max_cycle;Signal;HPM_P1;HPM_P2
2022/01/06 00:00:59;;;;;;;20.63;8.10;;;;;;;9.17;64.80;95728.22;5095883;28;20840;-37
2022/01/06 00:03:27;;;;;;;54.60;17.67;;;;;;;9.13;64.81;95727.91;5095858;28;20434;-39
2022/01/06 00:05:55;;;;;;;25.67;12.13;;;;;;;9.12;64.44;95728.16;5095527;28;20451;-36
2022/01/06 00:08:22;;;;;;;30.23;13.80;;;;;;;9.12;65.48;95728.97;5095496;28;20476;-35
2022/01/06 00:10:52;;;;;;;33.80;12.60;;;;;;;9.09;65.67;95724.19;5095369;28;20518;-36
2022/01/06 00:13:25;;;;;;;7.27;4.70;;;;;;;9.06;65.37;95735.28;5095242;28;20495;-36
2022/01/06 00:16:12;;;;;;;3.97;3.00;;;;;;;9.01;64.38;95735.22;5095387;28;20899;-35
2022/01/06 00:24:11;;;;;;;4.60;2.70;;;;;;;8.64;65.69;95743.88;5095299;28;20608;-35
2022/01/06 00:26:40;;;;;;;3.43;2.50;;;;;;;8.63;66.48;95746.78;5095109;28;20439;-36
2022/01/06 00:29:07;;;;;;;3.10;2.10;;;;;;;8.65;66.21;95724.31;5095099;28;20451;-35
2022/01/06 00:31:35;;;;;;;4.77;3.07;;;;;;;8.53;65.55;95711.22;5095244;28;20485;-35
2022/01/06 00:34:03;;;;;;;8.37;2.60;;;;;;;8.68;65.69;95728.31;5094946;28;20934;-36
2022/01/06 00:36:31;;;;;;;6.03;3.30;;;;;;;8.69;64.89;95724.59;5095270;28;20447;-35
2022/01/06 00:38:58;;;;;;;2.63;2.00;;;;;;;8.68;65.08;95723.81;5094869;28;20447;-36
2022/01/06 00:41:25;;;;;;;4.67;3.13;;;;;;;8.68;65.24;95723.03;5095181;28;20439;-35
2022/01/06 00:43:54;;;;;;;5.90;3.20;;;;;;;8.67;64.73;95724.06;5095180;28;20443;-36
2022/01/06 00:46:21;;;;;;;4.87;2.90;;;;;;;8.69;64.82;95725.44;5094740;28;20812;-36
2022/01/06 00:48:48;;;;;;;5.37;2.50;;;;;;;8.71;65.09;95718.03;5095084;28;20443;-35
2022/01/06 00:51:16;;;;;;;3.57;3.00;;;;;;;8.66;65.46;95709.25;5094850;28;20454;-36
2022/01/06 00:53:43;;;;;;;31.60;11.67;;;;;;;8.77;66.06;95729.44;5095731;28;20458;-36
2022/01/06 00:56:10;;;;;;;29.53;14.43;;;;;;;8.76;66.75;95725.22;5094816;28;20450;-37
2022/01/06 00:58:38;;;;;;;19.13;9.97;;;;;;;8.72;66.94;95718.81;5094297;28;20477;-36
2022/01/06 01:01:07;;;;;;;13.03;8.00;;;;;;;8.71;66.96;95717.22;5094428;28;20435;-35
2022/01/06 01:03:34;;;;;;;15.70;8.73;;;;;;;8.69;66.43;95716.66;5094401;28;20439;-39
2022/01/06 01:06:01;;;;;;;19.20;10.00;;;;;;;8.64;66.88;95716.63;5095455;28;20439;-37
2022/01/06 01:08:28;;;;;;;15.37;7.63;;;;;;;8.60;66.95;95711.84;5094317;28;20443;-35
2022/01/06 01:10:57;;;;;;;5.77;4.10;;;;;;;8.62;65.88;95719.50;5094226;28;20443;-35
2022/01/06 01:13:30;;;;;;;7.03;5.00;;;;;;;8.70;64.96;95711.13;5094157;28;20487;-36
2022/01/06 01:16:07;;;;;;;8.47;5.47;;;;;;;8.74;64.80;95703.50;5094526;28;20433;-35
2022/01/06 01:18:36;;;;;;;5.30;3.53;;;;;;;8.65;64.77;95686.47;5094483;28;20423;-38
2022/01/06 01:21:03;;;;;;;10.30;6.27;;;;;;;8.86;64.46;95709.41;5094413;28;20461;-35
2022/01/06 01:23:30;;;;;;;4.63;3.93;;;;;;;8.89;63.58;95698.34;5094022;28;20449;-35
2022/01/06 01:25:58;;;;;;;4.80;3.20;;;;;;;8.97;62.78;95699.72;5094352;28;20448;-35
2022/01/06 01:28:32;;;;;;;7.53;3.03;;;;;;;9.01;63.09;95706.91;5094256;28;20443;-36
2022/01/06 01:31:12;;;;;;;28.90;9.10;;;;;;;9.01;63.82;95688.38;5093599;28;20914;-36
2022/01/06 01:33:42;;;;;;;30.43;15.77;;;;;;;8.90;64.75;95678.75;5093873;28;20478;-36
2022/01/06 01:36:10;;;;;;;31.03;17.00;;;;;;;9.01;64.20;95690.22;5094440;28;20780;-36
2022/01/06 01:38:38;;;;;;;8.23;6.07;;;;;;;8.98;64.17;95694.16;5093782;28;20439;-35
2022/01/06 01:41:06;;;;;;;10.57;5.20;;;;;;;8.95;63.53;95693.91;5093729;28;20439;-36
2022/01/06 01:43:33;;;;;;;9.07;5.67;;;;;;;8.95;63.35;95697.34;5093984;28;20451;-36
2022/01/06 01:46:09;;;;;;;12.30;6.47;;;;;;;8.94;64.08;95694.94;5093808;28;20942;-36
2022/01/06 01:48:40;;;;;;;6.20;5.30;;;;;;;8.82;64.62;95698.56;5093797;28;20438;-35
2022/01/06 01:51:09;;;;;;;9.50;6.20;;;;;;;8.76;65.40;95686.31;5094137;28;20514;-37
2022/01/06 01:53:37;;;;;;;10.93;7.23;;;;;;;8.75;65.84;95686.56;5093794;28;20577;-36
2022/01/06 01:56:06;;;;;;;13.90;8.40;;;;;;;8.72;65.66;95681.78;5093645;28;20431;-36
2022/01/06 01:58:35;;;;;;;9.10;5.40;;;;;;;8.65;66.06;95687.28;5093415;28;21084;-36
2022/01/06 02:01:04;;;;;;;11.07;6.10;;;;;;;8.63;66.27;95693.88;5093982;28;20450;-36
2022/01/06 02:03:31;;;;;;;4.50;3.20;;;;;;;8.52;65.80;95688.47;5093766;28;20470;-36
2022/01/06 02:05:58;;;;;;;8.10;4.00;;;;;;;8.49;66.03;95694.25;5093815;28;20449;-36
2022/01/06 02:08:27;;;;;;;13.80;4.33;;;;;;;8.47;66.00;95688.41;5093768;28;20465;-35
2022/01/06 02:10:54;;;;;;;5.87;4.03;;;;;;;8.45;66.64;95687.88;5093758;28;20514;-36
2022/01/06 02:13:28;;;;;;;7.13;3.87;;;;;;;8.45;67.43;95679.94;5093595;28;20514;-36
2022/01/06 02:15:56;;;;;;;4.63;3.23;;;;;;;8.43;66.41;95700.53;5093450;28;20472;-36
2022/01/06 02:18:23;;;;;;;3.63;3.27;;;;;;;8.31;66.34;95695.38;5093383;28;20446;-36
2022/01/06 02:20:51;;;;;;;7.80;3.97;;;;;;;8.30;66.44;95700.91;5093362;28;20443;-36
2022/01/06 02:23:21;;;;;;;3.90;3.60;;;;;;;8.25;66.66;95703.50;5093615;28;20451;-35
2022/01/06 02:25:48;;;;;;;8.80;4.10;;;;;;;8.25;67.09;95708.78;5093311;28;20453;-36
2022/01/06 02:28:19;;;;;;;6.47;4.37;;;;;;;8.26;67.63;95699.78;5093267;28;20443;-37
2022/01/06 02:30:50;;;;;;;5.20;3.73;;;;;;;8.19;66.96;95706.09;5093442;28;20419;-36
2022/01/06 02:33:18;;;;;;;6.00;3.50;;;;;;;8.13;67.69;95696.50;5093241;28;20475;-36
2022/01/06 02:35:47;;;;;;;4.57;4.10;;;;;;;8.08;67.19;95714.16;5093463;28;20787;-36
2022/01/06 02:38:16;;;;;;;8.07;4.47;;;;;;;8.04;66.94;95713.81;5093259;28;20447;-36
2022/01/06 02:40:44;;;;;;;6.93;4.67;;;;;;;8.02;67.24;95721.19;5093430;28;20446;-37
2022/01/06 02:43:14;;;;;;;8.30;5.90;;;;;;;7.96;67.05;95711.63;5096267;28;20809;-36
2022/01/06 02:45:41;;;;;;;15.83;7.10;;;;;;;7.89;67.25;95711.00;5097713;28;20773;-36
2022/01/06 02:48:09;;;;;;;13.67;5.40;;;;;;;7.87;67.79;95716.56;5097375;28;20443;-36
2022/01/06 02:50:38;;;;;;;17.50;6.63;;;;;;;7.88;67.58;95714.69;5097360;28;20466;-36
2022/01/06 02:53:07;;;;;;;11.33;4.77;;;;;;;7.88;66.76;95722.63;5097161;28;20875;-36
2022/01/06 02:55:38;;;;;;;8.00;4.63;;;;;;;7.82;66.64;95710.41;5097226;28;20465;-36
2022/01/06 02:58:05;;;;;;;11.13;5.90;;;;;;;7.78;66.51;95718.78;5097314;28;20478;-36
2022/01/06 03:00:35;;;;;;;10.20;6.77;;;;;;;7.73;67.06;95717.94;5096798;28;20435;-36
2022/01/06 03:03:02;;;;;;;4.00;3.60;;;;;;;7.69;67.06;95717.63;5096724;28;20447;-36
2022/01/06 03:05:29;;;;;;;6.63;2.67;;;;;;;7.66;66.85;95726.03;5096803;28;20923;-35
2022/01/06 03:07:57;;;;;;;4.03;3.10;;;;;;;7.65;67.03;95727.06;5097047;28;20812;-36
2022/01/06 03:10:24;;;;;;;6.23;3.30;;;;;;;7.62;66.65;95719.66;5096559;28;20430;-36
2022/01/06 03:12:53;;;;;;;8.30;5.27;;;;;;;7.59;67.02;95723.59;5096544;28;20678;-35
2022/01/06 03:15:21;;;;;;;9.53;4.23;;;;;;;7.60;67.42;95724.38;5096515;28;20447;-36
2022/01/06 03:17:51;;;;;;;4.47;3.30;;;;;;;7.61;67.73;95733.09;5096840;28;20451;-36
2022/01/06 03:20:19;;;;;;;6.83;4.40;;;;;;;7.60;68.07;95734.94;5096767;28;20442;-36
2022/01/06 03:22:47;;;;;;;8.77;4.30;;;;;;;7.59;68.52;95733.31;5096325;28;20439;-36
2022/01/06 03:25:15;;;;;;;64.20;33.73;;;;;;;7.59;68.61;95733.31;5096934;28;20450;-37
2022/01/06 03:27:43;;;;;;;82.20;45.13;;;;;;;7.57;69.14;95724.84;5096375;28;20434;-35
2022/01/06 03:30:15;;;;;;;51.87;25.77;;;;;;;7.50;68.96;95719.72;5096116;28;20969;-37
2022/01/06 03:32:42;;;;;;;48.20;26.57;;;;;;;7.46;68.58;95725.75;5096342;28;20471;-36
2022/01/06 03:35:12;;;;;;;30.93;17.70;;;;;;;7.43;68.66;95728.88;5096065;28;20439;-35
2022/01/06 03:37:39;;;;;;;18.17;9.70;;;;;;;7.35;68.45;95727.44;5096158;28;20446;-36
2022/01/06 03:40:08;;;;;;;21.70;13.30;;;;;;;7.35;68.89;95738.00;5096290;28;20439;-36
2022/01/06 03:42:36;;;;;;;22.20;10.43;;;;;;;7.33;68.84;95732.94;5096218;28;20451;-36
2022/01/06 03:45:07;;;;;;;18.63;9.23;;;;;;;7.26;68.37;95715.69;5095937;28;20780;-36
2022/01/06 03:47:36;;;;;;;10.37;8.00;;;;;;;7.34;68.99;95736.41;5095990;28;20784;-35
2022/01/06 03:50:04;;;;;;;10.17;7.17;;;;;;;7.33;69.61;95734.78;5095767;28;20947;-38
2022/01/06 03:52:31;;;;;;;13.43;8.00;;;;;;;7.33;69.63;95740.06;5095794;28;20781;-38
2022/01/06 03:54:58;;;;;;;12.40;8.33;;;;;;;7.33;69.37;95746.16;5095096;28;20449;-38
2022/01/06 03:57:25;;;;;;;11.33;7.90;;;;;;;7.29;69.48;95745.06;5095820;28;20569;-36
2022/01/06 03:59:52;;;;;;;12.60;7.77;;;;;;;7.29;69.74;95744.25;5095686;28;20450;-38
2022/01/06 04:02:20;;;;;;;15.33;7.67;;;;;;;7.26;69.30;95761.38;5095570;28;20435;-38
2022/01/06 04:04:49;;;;;;;27.90;12.40;;;;;;;7.27;69.81;95744.50;5095902;28;20442;-36
2022/01/06 04:07:16;;;;;;;14.93;9.50;;;;;;;7.26;69.43;95753.44;5095780;28;20439;-37
2022/01/06 04:09:43;;;;;;;13.40;9.00;;;;;;;7.24;68.99;95760.00;5095745;28;20465;-37
2022/01/06 04:12:11;;;;;;;17.50;13.60;;;;;;;7.21;69.11;95752.59;5106480;28;20438;-37
2022/01/06 04:14:38;;;;;;;18.83;10.20;;;;;;;7.19;69.04;95760.75;5115707;28;20988;-37
2022/01/06 04:17:07;;;;;;;12.37;7.97;;;;;;;7.20;68.46;95753.59;5115642;27;20449;-36
2022/01/06 04:19:36;;;;;;;13.00;8.10;;;;;;;7.18;68.91;95754.66;5115570;28;20438;-36
2022/01/06 04:22:05;;;;;;;21.43;10.83;;;;;;;7.17;68.89;95753.06;5115559;28;20454;-36
2022/01/06 04:24:32;;;;;;;18.00;10.30;;;;;;;7.19;69.20;95755.47;5115800;28;20485;-36
2022/01/06 04:26:59;;;;;;;15.03;8.33;;;;;;;7.16;69.17;95758.56;5115385;28;20442;-36
2022/01/06 04:29:26;;;;;;;22.23;16.43;;;;;;;7.16;69.63;95771.75;5115781;28;20442;-36
2022/01/06 04:31:54;;;;;;;73.20;37.70;;;;;;;7.08;69.57;95770.31;5115707;28;20495;-36
2022/01/06 04:34:21;;;;;;;77.33;36.03;;;;;;;7.05;69.57;95783.19;5115364;28;20482;-36
2022/01/06 04:36:52;;;;;;;29.80;17.50;;;;;;;6.87;69.65;95766.53;5115187;28;20453;-36
2022/01/06 04:39:21;;;;;;;27.30;17.27;;;;;;;6.98;69.65;95776.22;5115300;28;20795;-35
2022/01/06 04:41:48;;;;;;;27.40;20.10;;;;;;;6.98;69.59;95794.69;5115542;28;20442;-36
2022/01/06 04:44:15;;;;;;;11.90;9.00;;;;;;;7.09;77.62;95786.97;5115437;28;20472;-36
2022/01/06 04:46:42;;;;;;;21.17;9.43;;;;;;;7.20;76.79;95803.78;5115198;28;20446;-36
2022/01/06 04:49:10;;;;;;;12.20;9.73;;;;;;;7.21;72.59;95800.09;5115341;28;20914;-35
2022/01/06 04:51:37;;;;;;;34.63;11.13;;;;;;;7.13;70.96;95817.13;5115079;28;20438;-37
2022/01/06 04:54:05;;;;;;;17.37;10.67;;;;;;;7.10;69.29;95810.47;5115114;28;20486;-36
2022/01/06 04:56:36;;;;;;;12.90;7.70;;;;;;;7.01;69.37;95816.38;5114968;27;20569;-36
2022/01/06 04:59:05;;;;;;;13.30;9.97;;;;;;;7.03;69.58;95814.31;5114860;28;20482;-36
2022/01/06 05:01:32;;;;;;;42.20;19.20;;;;;;;7.01;69.99;95819.00;5114848;28;21000;-36
2022/01/06 05:03:59;;;;;;;40.40;18.23;;;;;;;6.96;70.54;95825.78;5115205;28;20438;-38
2022/01/06 05:06:27;;;;;;;53.67;25.10;;;;;;;6.94;70.24;95835.78;5114261;28;20438;-38
2022/01/06 05:08:55;;;;;;;59.30;26.83;;;;;;;6.87;70.03;95835.13;5114880;28;20784;-38
2022/01/06 05:11:22;;;;;;;57.73;37.40;;;;;;;6.80;69.98;95831.84;5114533;28;20438;-38
2022/01/06 05:13:51;;;;;;;50.90;28.63;;;;;;;6.78;70.19;95827.84;5114582;28;20494;-38
2022/01/06 05:16:18;;;;;;;33.47;16.20;;;;;;;6.75;70.41;95829.91;5114452;28;20913;-38
2022/01/06 05:18:46;;;;;;;32.27;13.20;;;;;;;6.75;70.60;95834.38;5114558;28;20434;-38
2022/01/06 05:21:13;;;;;;;30.60;13.00;;;;;;;6.73;70.89;95837.28;5114539;28;20933;-38
2022/01/06 05:23:41;;;;;;;37.23;17.20;;;;;;;6.57;71.30;95816.91;5114672;28;20453;-36
2022/01/06 05:26:09;;;;;;;27.33;16.80;;;;;;;6.65;71.09;95834.19;5114642;28;20456;-36
2022/01/06 05:28:36;;;;;;;51.90;25.07;;;;;;;6.50;71.28;95811.75;5114547;28;20449;-36
2022/01/06 05:31:05;;;;;;;25.57;15.00;;;;;;;6.60;71.16;95842.78;5114540;28;20454;-36
2022/01/06 05:33:32;;;;;;;28.20;17.77;;;;;;;6.60;71.19;95848.06;5114450;28;20481;-36
2022/01/06 05:36:00;;;;;;;16.37;9.23;;;;;;;6.61;70.59;95844.41;5114090;28;20440;-36
2022/01/06 05:38:27;;;;;;;10.33;6.70;;;;;;;6.63;70.42;95846.81;5114461;28;20446;-38
2022/01/06 05:40:54;;;;;;;17.23;10.17;;;;;;;6.68;70.70;95871.44;5114140;28;20837;-39
2022/01/06 05:43:22;;;;;;;38.43;13.20;;;;;;;6.69;70.97;95856.41;5114421;28;20446;-36
2022/01/06 05:45:51;;;;;;;22.43;11.57;;;;;;;6.67;70.96;95853.25;5114259;28;20526;-36
2022/01/06 05:48:20;;;;;;;50.53;19.03;;;;;;;6.64;71.39;95849.22;5114254;28;20777;-36
2022/01/06 05:50:48;;;;;;;75.90;32.60;;;;;;;6.69;71.77;95851.13;5113975;28;20934;-36
2022/01/06 05:53:16;;;;;;;58.03;28.67;;;;;;;6.70;71.76;95868.59;5113775;28;20474;-36
2022/01/06 05:55:43;;;;;;;50.33;26.10;;;;;;;6.72;71.09;95877.06;5114242;28;20933;-36
2022/01/06 05:58:10;;;;;;;51.70;25.70;;;;;;;6.69;70.95;95877.50;5113847;28;20841;-36
2022/01/06 06:00:38;;;;;;;71.80;29.53;;;;;;;6.62;71.22;95872.38;5113882;28;20443;-36
2022/01/06 06:03:05;;;;;;;61.17;30.67;;;;;;;6.62;71.20;95885.56;5109945;28;20548;-36
2022/01/06 06:05:34;;;;;;;79.27;33.97;;;;;;;6.66;71.51;95876.16;5093517;28;20447;-36
2022/01/06 06:08:01;;;;;;;107.13;48.93;;;;;;;6.72;71.13;95871.78;5093656;28;20445;-36
2022/01/06 06:10:28;;;;;;;103.70;48.37;;;;;;;6.78;70.99;95878.78;5093698;28;20443;-36
2022/01/06 06:12:56;;;;;;;73.90;37.57;;;;;;;6.73;71.02;95860.19;5093444;28;20783;-36
2022/01/06 06:15:23;;;;;;;63.43;30.60;;;;;;;6.83;70.79;95878.06;5093205;28;20490;-36
2022/01/06 06:17:51;;;;;;;63.50;32.93;;;;;;;6.81;70.62;95880.94;5096054;28;20447;-35
2022/01/06 06:20:18;;;;;;;89.00;35.50;;;;;;;6.82;70.81;95877.28;5097755;28;20446;-37
2022/01/06 06:22:47;;;;;;;96.00;44.93;;;;;;;6.85;69.65;95884.69;5097453;28;20434;-38
2022/01/06 06:25:14;;;;;;;81.23;36.80;;;;;;;6.87;69.83;95885.28;5098072;28;20453;-38
2022/01/06 06:27:41;;;;;;;100.93;41.97;;;;;;;6.87;69.55;95890.56;5097398;28;20446;-38
2022/01/06 06:30:10;;;;;;;76.43;33.03;;;;;;;6.84;69.44;95896.31;5097368;28;20445;-38
2022/01/06 06:32:37;;;;;;;97.27;44.00;;;;;;;6.81;69.90;95902.03;5097463;28;20450;-38
2022/01/06 06:35:05;;;;;;;24.93;14.93;;;;;;;6.84;69.58;95900.75;5097293;28;20494;-38
2022/01/06 06:37:33;;;;;;;31.73;19.67;;;;;;;6.90;68.77;95905.09;5097335;28;20439;-38
2022/01/06 06:40:02;;;;;;;92.83;51.27;;;;;;;6.96;69.11;95904.97;5097150;28;20438;-38
2022/01/06 06:42:29;;;;;;;91.10;49.00;;;;;;;7.02;68.72;95907.72;5097516;28;20922;-37
2022/01/06 06:44:57;;;;;;;58.20;35.03;;;;;;;7.08;68.83;95919.97;5097422;28;20490;-37
2022/01/06 06:47:25;;;;;;;45.83;27.20;;;;;;;7.13;68.24;95909.50;5097014;28;20443;-39
2022/01/06 06:49:55;;;;;;;69.90;37.40;;;;;;;7.21;68.20;95914.41;5097865;28;20488;-38
2022/01/06 06:52:22;;;;;;;53.23;26.87;;;;;;;7.25;68.36;95918.19;5097035;28;20451;-38
2022/01/06 06:54:50;;;;;;;63.67;32.87;;;;;;;7.31;68.82;95917.25;5096797;28;20482;-38
2022/01/06 06:57:18;;;;;;;46.17;26.50;;;;;;;7.35;68.86;95918.34;5096625;28;20438;-36
2022/01/06 06:59:46;;;;;;;45.83;26.60;;;;;;;7.39;68.82;95918.69;5097383;28;20430;-38
2022/01/06 07:02:13;;;;;;;31.03;16.37;;;;;;;7.36;68.47;95913.91;5096811;28;20807;-38
2022/01/06 07:04:40;;;;;;;30.07;16.60;;;;;;;7.41;68.72;95929.03;5096767;28;20438;-38
2022/01/06 07:07:07;;;;;;;22.87;14.73;;;;;;;7.43;68.89;95934.88;5096628;28;20449;-38
2022/01/06 07:09:35;;;;;;;35.23;21.57;;;;;;;7.47;69.21;95925.44;5096690;28;20445;-38
2022/01/06 07:12:02;;;;;;;53.03;28.30;;;;;;;7.49;68.42;95934.72;5096927;28;20447;-38
2022/01/06 07:14:31;;;;;;;53.97;29.57;;;;;;;7.53;68.60;95932.41;5096460;28;20493;-38
2022/01/06 07:16:58;;;;;;;54.50;31.27;;;;;;;7.53;68.57;95935.84;5096774;28;20443;-38
2022/01/06 07:19:25;;;;;;;55.97;30.00;;;;;;;7.59;69.44;95947.28;5096339;28;20449;-38
2022/01/06 07:21:53;;;;;;;57.63;29.77;;;;;;;7.61;71.10;95947.06;5096813;28;20450;-38
2022/01/06 07:24:20;;;;;;;56.60;32.17;;;;;;;7.67;71.18;95941.63;5096372;28;20961;-39
2022/01/06 07:26:47;;;;;;;63.27;33.43;;;;;;;7.71;70.88;95942.75;5096371;28;20446;-38
2022/01/06 07:29:15;;;;;;;66.30;35.73;;;;;;;7.69;70.09;95958.06;5095548;28;20442;-38
2022/01/06 07:31:43;;;;;;;73.80;38.63;;;;;;;7.72;70.28;95948.84;5096447;28;20434;-39
2022/01/06 07:34:11;;;;;;;91.43;38.20;;;;;;;7.72;69.86;95960.22;5096171;28;20491;-38
2022/01/06 07:36:38;;;;;;;77.93;42.93;;;;;;;7.69;70.30;95960.69;5096123;28;21040;-39
2022/01/06 07:39:05;;;;;;;65.10;37.80;;;;;;;7.66;70.56;95955.91;5096146;28;20443;-38
2022/01/06 07:41:32;;;;;;;105.33;55.87;;;;;;;7.64;70.41;95947.41;5096007;28;20439;-38
2022/01/06 07:44:00;;;;;;;76.77;43.70;;;;;;;7.67;70.79;95946.91;5096843;28;20450;-35
2022/01/06 07:46:27;;;;;;;91.53;45.17;;;;;;;7.71;70.01;95949.91;5097149;28;20443;-38
2022/01/06 07:48:58;;;;;;;63.23;37.77;;;;;;;7.77;69.26;95957.66;5095816;28;20449;-38
2022/01/06 07:51:26;;;;;;;58.03;31.20;;;;;;;7.79;69.25;95955.59;5095910;28;20434;-38
2022/01/06 07:53:54;;;;;;;76.70;39.50;;;;;;;7.80;69.43;95962.47;5095836;28;20979;-38
2022/01/06 07:56:22;;;;;;;71.87;41.10;;;;;;;7.74;69.32;95958.16;5095719;28;20805;-38
2022/01/06 07:58:50;;;;;;;71.67;38.00;;;;;;;7.70;69.57;95964.13;5095523;28;20475;-38
2022/01/06 08:01:18;;;;;;;78.17;44.00;;;;;;;7.69;70.28;95960.69;5095675;28;20442;-38
2022/01/06 08:03:45;;;;;;;58.90;34.20;;;;;;;7.73;70.55;95968.94;5095869;28;20445;-38
2022/01/06 08:06:15;;;;;;;74.33;40.33;;;;;;;7.72;70.65;95954.94;5095500;28;20450;-38
2022/01/06 08:08:43;;;;;;;71.93;40.30;;;;;;;7.82;71.75;95970.16;5095558;28;20443;-38
2022/01/06 08:11:10;;;;;;;112.03;54.17;;;;;;;7.88;71.45;95973.69;5095469;28;20442;-38
2022/01/06 08:13:38;;;;;;;131.80;63.90;;;;;;;7.91;69.97;95970.56;5096366;28;20454;-38
2022/01/06 08:16:05;;;;;;;164.53;85.20;;;;;;;7.95;69.52;95976.97;5095362;28;20942;-39
2022/01/06 08:18:33;;;;;;;171.33;83.67;;;;;;;7.97;69.35;95977.53;5095658;28;20466;-38
2022/01/06 08:21:00;;;;;;;158.73;75.77;;;;;;;7.99;69.45;95976.25;5095337;28;20945;-38
2022/01/06 08:23:29;;;;;;;137.83;69.50;;;;;;;8.02;69.26;95985.53;5095459;28;20922;-38
2022/01/06 08:25:56;;;;;;;104.00;51.10;;;;;;;8.12;69.92;95980.44;5095305;28;20473;-38
2022/01/06 08:28:23;;;;;;;97.97;49.63;;;;;;;8.21;69.09;95962.31;5095454;28;20450;-38
2022/01/06 08:30:51;;;;;;;101.03;50.80;;;;;;;8.33;68.57;95972.81;5095328;28;20925;-38
2022/01/06 08:33:18;;;;;;;91.13;50.03;;;;;;;8.43;68.43;95972.97;5095414;28;20818;-38
2022/01/06 08:35:45;;;;;;;70.97;39.07;;;;;;;8.49;68.58;95969.38;5094899;28;21072;-38
2022/01/06 08:38:13;;;;;;;64.77;39.10;;;;;;;8.60;68.17;95971.16;5095036;28;20439;-38
2022/01/06 08:40:41;;;;;;;126.60;62.30;;;;;;;8.71;68.35;95979.19;5094612;28;20443;-38
2022/01/06 08:43:09;;;;;;;131.10;67.00;;;;;;;8.66;68.19;95971.19;5093681;28;20454;-38
2022/01/06 08:45:36;;;;;;;101.53;53.20;;;;;;;8.80;67.43;95978.56;5094744;28;20949;-38
2022/01/06 08:48:04;;;;;;;94.83;46.07;;;;;;;8.84;68.12;95976.22;5095024;28;20445;-38
2022/01/06 08:50:31;;;;;;;70.33;40.40;;;;;;;8.87;68.58;95970.44;5094774;28;20803;-37
2022/01/06 08:52:59;;;;;;;53.60;31.27;;;;;;;8.95;69.04;95977.94;5095158;28;20446;-36
2022/01/06 08:55:26;;;;;;;56.87;31.20;;;;;;;9.07;67.82;95979.69;5094909;28;20997;-35
2022/01/06 08:57:57;;;;;;;60.23;34.10;;;;;;;9.11;66.79;95980.78;5094773;28;20473;-36
2022/01/06 09:00:24;;;;;;;69.73;40.37;;;;;;;9.13;67.77;95979.47;5095068;28;20974;-39
2022/01/06 09:02:51;;;;;;;77.00;38.23;;;;;;;9.25;67.95;95979.38;5094472;28;20451;-38
2022/01/06 09:05:19;;;;;;;67.23;33.40;;;;;;;9.34;67.65;95985.84;5094305;28;20453;-38
2022/01/06 09:07:46;;;;;;;51.93;29.87;;;;;;;9.46;68.23;95982.25;5094386;28;20445;-38
2022/01/06 09:10:13;;;;;;;85.07;45.97;;;;;;;9.54;68.21;95979.94;5094243;28;20441;-38
2022/01/06 09:12:43;;;;;;;73.20;39.40;;;;;;;9.69;64.94;95970.56;5094642;28;20447;-38
2022/01/06 09:15:12;;;;;;;90.93;42.50;;;;;;;9.84;65.21;95990.03;5094135;28;20486;-38
2022/01/06 09:17:39;;;;;;;129.93;68.63;;;;;;;9.94;64.75;95978.75;5094163;28;20822;-39
2022/01/06 09:20:09;;;;;;;174.83;94.40;;;;;;;10.12;65.39;95985.53;5094210;28;20461;-38
2022/01/06 09:22:36;;;;;;;121.27;66.57;;;;;;;10.19;66.63;95986.09;5094152;28;20918;-38
2022/01/06 09:25:04;;;;;;;91.33;49.83;;;;;;;10.16;67.16;95973.34;5094420;28;20446;-38
2022/01/06 09:27:31;;;;;;;63.43;34.03;;;;;;;10.31;67.56;95988.63;5094320;28;20449;-37
2022/01/06 09:29:59;;;;;;;44.37;26.47;;;;;;;10.42;67.60;95984.19;5093988;28;20914;-39
2022/01/06 09:32:28;;;;;;;41.83;21.00;;;;;;;10.53;67.20;95972.59;5094322;28;20442;-38
2022/01/06 09:34:55;;;;;;;74.90;35.40;;;;;;;10.65;65.97;95967.91;5093921;28;20486;-38
2022/01/06 09:37:22;;;;;;;76.67;36.53;;;;;;;10.76;65.83;95978.59;5093994;28;20445;-38
2022/01/06 09:39:50;;;;;;;52.10;31.33;;;;;;;10.79;65.66;95951.50;5094162;28;20447;-38
2022/01/06 09:42:19;;;;;;;45.37;26.63;;;;;;;11.03;65.70;95960.66;5094173;28;20454;-38
2022/01/06 09:44:48;;;;;;;44.23;28.13;;;;;;;11.17;66.11;95958.31;5094097;28;20449;-36
2022/01/06 09:47:16;;;;;;;31.97;21.00;;;;;;;11.28;66.48;95954.63;5093736;28;20948;-38
2022/01/06 09:49:45;;;;;;;33.23;22.73;;;;;;;11.27;66.74;95937.09;5093978;28;21005;-38
2022/01/06 09:52:14;;;;;;;26.93;16.93;;;;;;;11.43;66.75;95961.84;5093365;28;20443;-37
2022/01/06 09:54:42;;;;;;;28.43;13.07;;;;;;;11.35;63.89;95962.34;5093637;28;20478;-37
2022/01/06 09:57:10;;;;;;;21.37;11.40;;;;;;;11.35;62.48;95957.03;5093410;28;20446;-38
2022/01/06 09:59:37;;;;;;;20.47;11.67;;;;;;;11.33;61.00;95972.44;5093924;28;20431;-37
2022/01/06 10:02:05;;;;;;;14.73;9.83;;;;;;;11.30;61.42;95940.31;5093526;28;20450;-38
2022/01/06 10:04:32;;;;;;;12.37;8.87;;;;;;;11.57;60.21;95961.34;5093928;28;20438;-38
2022/01/06 10:07:02;;;;;;;14.40;8.73;;;;;;;11.75;58.88;95965.41;5093677;28;20449;-38
2022/01/06 10:09:30;;;;;;;14.83;9.17;;;;;;;11.95;59.33;95956.66;5113800;28;20426;-36
2022/01/06 10:11:58;;;;;;;14.30;7.47;;;;;;;12.14;58.08;95960.41;5114054;28;20448;-36
2022/01/06 10:14:37;;;;;;;15.47;7.40;;;;;;;12.27;56.29;95962.50;5113915;28;20442;-36
2022/01/06 10:17:05;;;;;;;9.23;5.97;;;;;;;12.38;56.91;95959.84;5113729;28;20430;-37
2022/01/06 10:19:32;;;;;;;7.73;5.37;;;;;;;12.40;57.42;95957.72;5113891;28;20444;-36
2022/01/06 10:22:01;;;;;;;13.00;6.30;;;;;;;12.48;57.33;95962.50;5113564;28;20951;-37
2022/01/06 10:24:29;;;;;;;10.53;5.83;;;;;;;12.50;56.68;95974.47;5113947;28;20619;-38
2022/01/06 10:26:58;;;;;;;11.80;5.67;;;;;;;12.55;55.66;95975.53;5114014;28;20438;-37
2022/01/06 10:29:27;;;;;;;7.40;4.80;;;;;;;12.46;54.83;95968.09;5113630;28;20929;-38
2022/01/06 10:32:02;;;;;;;6.57;4.97;;;;;;;12.40;55.51;95947.06;5113548;28;20958;-37
2022/01/06 10:34:31;;;;;;;14.00;8.73;;;;;;;12.50;57.42;95968.38;5113541;28;20426;-38
2022/01/06 10:36:58;;;;;;;11.50;9.03;;;;;;;12.57;58.19;95963.56;5113822;28;20445;-38
2022/01/06 10:39:29;;;;;;;12.87;6.60;;;;;;;12.62;57.74;95952.88;5113799;28;20453;-38
2022/01/06 10:42:05;;;;;;;17.30;8.23;;;;;;;12.72;57.74;95959.28;5113412;28;20458;-38
2022/01/06 10:44:33;;;;;;;13.53;7.87;;;;;;;12.79;57.38;95954.47;5113800;28;20426;-35
2022/01/06 10:47:00;;;;;;;8.10;5.93;;;;;;;12.84;57.20;95951.78;5113601;28;20445;-36
2022/01/06 10:49:27;;;;;;;10.80;7.53;;;;;;;12.91;57.04;95944.31;5113551;28;20446;-36
2022/01/06 10:51:54;;;;;;;12.43;6.47;;;;;;;12.95;55.74;95942.69;5113277;28;20442;-36
2022/01/06 10:54:24;;;;;;;6.43;5.30;;;;;;;13.01;55.55;95944.25;5113689;28;20572;-36
2022/01/06 10:57:01;;;;;;;11.30;5.87;;;;;;;13.06;55.56;95943.47;5113176;28;20496;-36
2022/01/06 10:59:30;;;;;;;8.93;7.03;;;;;;;13.09;54.81;95933.03;5113292;28;20469;-36
2022/01/06 11:01:58;;;;;;;13.77;7.27;;;;;;;13.17;54.75;95934.34;5113352;28;20446;-35
2022/01/06 11:04:25;;;;;;;20.83;9.33;;;;;;;13.20;54.75;95943.66;5116349;28;20438;-36
2022/01/06 11:06:53;;;;;;;56.30;24.83;;;;;;;13.22;55.48;95944.19;5117052;28;20448;-36
2022/01/06 11:09:20;;;;;;;26.03;14.40;;;;;;;13.26;55.08;95935.38;5117862;28;20444;-35
2022/01/06 11:14:42;;;;;;;32.93;16.27;;;;;;;13.29;56.32;95931.38;5101149;28;20426;-36
2022/01/06 11:17:09;;;;;;;17.60;8.07;;;;;;;13.26;56.30;95943.38;5116923;28;20495;-36
2022/01/06 11:19:37;;;;;;;10.40;7.90;;;;;;;13.26;56.30;95937.25;5117151;28;20440;-35
2022/01/06 11:22:06;;;;;;;9.50;7.30;;;;;;;13.21;56.72;95930.06;5116855;28;20949;-35
2022/01/06 11:24:34;;;;;;;11.07;7.90;;;;;;;13.19;56.70;95931.41;5116748;28;20532;-35
2022/01/06 11:27:04;;;;;;;13.73;4.83;;;;;;;13.18;56.46;95941.25;5116992;28;20866;-35
2022/01/06 11:29:34;;;;;;;19.60;7.77;;;;;;;13.10;56.72;95916.00;5116739;28;20444;-34
2022/01/06 11:32:04;;;;;;;11.83;6.10;;;;;;;13.20;56.82;95930.34;5116674;28;20464;-36
2022/01/06 11:34:38;;;;;;;11.70;7.10;;;;;;;13.23;56.34;95933.25;5100417;28;20451;-35
2022/01/06 11:37:14;;;;;;;6.73;5.50;;;;;;;13.21;58.19;95921.28;5096254;28;20838;-35
2022/01/06 11:39:41;;;;;;;8.50;5.77;;;;;;;13.11;59.21;95922.09;5096128;28;20812;-36
2022/01/06 11:42:16;;;;;;;18.07;10.63;;;;;;;13.03;61.58;95936.78;5096160;28;20434;-36